createdAt,value
2022-12-11T00:00:41.126Z,15
2022-12-11T00:02:53.016Z,16
2022-12-11T00:05:04.907Z,17
2022-12-11T00:07:16.798Z,18
2022-12-11T00:09:28.689Z,10
2022-12-11T00:11:40.580Z,13
2022-12-11T00:13:52.471Z,17
2022-12-11T00:16:04.361Z,16
2022-12-11T00:18:16.251Z,17
2022-12-11T00:20:28.142Z,22
2022-12-11T00:22:40.033Z,14
2022-12-11T00:24:51.923Z,20
2022-12-11T00:27:03.813Z,14
2022-12-11T00:29:15.704Z,19
2022-12-11T00:31:27.594Z,19
2022-12-11T00:33:39.486Z,20
2022-12-11T00:35:51.376Z,22
2022-12-11T00:38:03.266Z,18
2022-12-11T00:40:15.156Z,22
2022-12-11T00:42:27.047Z,23
2022-12-11T00:44:38.938Z,33
2022-12-11T00:46:50.829Z,28
2022-12-11T00:49:02.720Z,28
2022-12-11T00:51:14.612Z,23
2022-12-11T00:53:26.503Z,22
2022-12-11T00:55:38.393Z,19
2022-12-11T00:57:50.284Z,27
2022-12-11T01:00:02.173Z,21
2022-12-11T01:02:14.064Z,19
2022-12-11T01:04:25.955Z,23
2022-12-11T01:06:37.846Z,18
2022-12-11T01:08:49.737Z,25
2022-12-11T01:11:01.629Z,25
2022-12-11T01:13:13.520Z,24
2022-12-11T01:15:25.410Z,25
2022-12-11T01:17:37.301Z,19
2022-12-11T01:21:44.699Z,21
2022-12-11T01:23:56.590Z,21
2022-12-11T01:26:08.481Z,22
2022-12-11T01:28:20.372Z,17
2022-12-11T01:30:32.263Z,16
2022-12-11T01:32:44.153Z,19
2022-12-11T01:34:56.044Z,16
2022-12-11T01:37:07.934Z,15
2022-12-11T01:39:19.825Z,21
2022-12-11T01:41:31.715Z,22
2022-12-11T01:43:43.605Z,21
2022-12-11T01:45:55.495Z,23
2022-12-11T01:48:07.386Z,20
2022-12-11T01:50:19.277Z,19
2022-12-11T01:52:31.169Z,20
2022-12-11T01:54:43.060Z,22
2022-12-11T01:56:54.950Z,20
2022-12-11T01:59:06.840Z,27
2022-12-11T02:01:18.730Z,24
2022-12-11T02:03:30.621Z,21
2022-12-11T02:05:42.512Z,23
2022-12-11T02:07:54.403Z,26
2022-12-11T02:10:06.293Z,28
2022-12-11T02:12:18.185Z,24
2022-12-11T02:14:30.076Z,16
2022-12-11T02:16:41.966Z,18
2022-12-11T02:18:53.856Z,18
2022-12-11T02:23:01.254Z,18
2022-12-11T02:25:13.145Z,14
2022-12-11T02:27:25.035Z,16
2022-12-11T02:29:36.925Z,13
2022-12-11T02:31:48.816Z,13
2022-12-11T02:36:12.598Z,13
2022-12-11T02:38:24.488Z,11
2022-12-11T02:40:36.378Z,10
2022-12-11T02:42:48.268Z,14
2022-12-11T02:45:00.158Z,14
2022-12-11T02:47:12.048Z,13
2022-12-11T02:49:23.939Z,14
2022-12-11T02:51:35.831Z,16
2022-12-11T02:53:47.721Z,14
2022-12-11T02:55:59.611Z,13
2022-12-11T02:58:11.502Z,12
2022-12-11T03:00:23.392Z,13
2022-12-11T03:02:35.283Z,14
2022-12-11T03:04:47.174Z,9
2022-12-11T03:06:59.065Z,9
2022-12-11T03:09:10.956Z,11
2022-12-11T03:11:22.846Z,9
2022-12-11T03:13:34.737Z,12
2022-12-11T03:15:46.627Z,10
2022-12-11T03:17:58.517Z,14
2022-12-11T03:20:10.407Z,14
2022-12-11T03:22:22.298Z,11
2022-12-11T03:24:34.189Z,12
2022-12-11T03:26:46.080Z,14
2022-12-11T03:28:57.971Z,11
2022-12-11T03:31:09.861Z,9
2022-12-11T03:33:21.753Z,12
2022-12-11T03:37:29.150Z,14
2022-12-11T03:39:41.040Z,14
2022-12-11T03:41:52.932Z,12
2022-12-11T03:44:04.822Z,11
2022-12-11T03:46:16.712Z,12
2022-12-11T03:48:28.603Z,14
2022-12-11T03:50:40.493Z,15
2022-12-11T03:52:52.384Z,13
2022-12-11T03:55:04.275Z,10
2022-12-11T03:57:16.166Z,12
2022-12-11T03:59:28.056Z,10
2022-12-11T04:01:39.946Z,9
2022-12-11T04:03:51.836Z,11
2022-12-11T04:06:03.727Z,16
2022-12-11T04:08:15.618Z,12
2022-12-11T04:10:27.508Z,11
2022-12-11T04:12:39.398Z,10
2022-12-11T04:14:51.289Z,11
2022-12-11T04:17:03.179Z,11
2022-12-11T04:19:15.070Z,12
2022-12-11T04:21:26.960Z,13
2022-12-11T04:25:34.358Z,11
2022-12-11T04:27:46.249Z,10
2022-12-11T04:29:58.140Z,11
2022-12-11T04:32:10.030Z,11
2022-12-11T04:34:21.921Z,12
2022-12-11T04:36:33.813Z,11
2022-12-11T04:38:45.704Z,10
2022-12-11T04:40:57.595Z,9
2022-12-11T04:43:09.486Z,12
2022-12-11T04:45:21.376Z,13
2022-12-11T04:47:33.266Z,15
2022-12-11T04:49:45.156Z,15
2022-12-11T04:51:57.047Z,17
2022-12-11T04:54:08.938Z,13
2022-12-11T04:56:20.828Z,10
2022-12-11T04:58:32.718Z,13
2022-12-11T05:00:44.610Z,12
2022-12-11T05:02:56.500Z,16
2022-12-11T05:05:08.390Z,16
2022-12-11T05:07:20.280Z,16
2022-12-11T05:09:32.171Z,15
2022-12-11T05:11:44.062Z,13
2022-12-11T05:13:55.953Z,12
2022-12-11T05:16:07.843Z,11
2022-12-11T05:18:19.734Z,13
2022-12-11T05:20:31.625Z,12
2022-12-11T05:22:43.516Z,11
2022-12-11T05:24:55.406Z,12
2022-12-11T05:27:07.296Z,11
2022-12-11T05:29:19.187Z,8
2022-12-11T05:31:31.078Z,8
2022-12-11T05:33:42.969Z,8
2022-12-11T05:35:54.860Z,11
2022-12-11T05:38:06.750Z,9
2022-12-11T05:40:18.640Z,10
2022-12-11T05:42:30.530Z,12
2022-12-11T05:44:42.422Z,13
2022-12-11T05:46:54.313Z,10
2022-12-11T05:49:06.204Z,12
2022-12-11T05:51:18.095Z,10
2022-12-11T05:53:29.986Z,9
2022-12-11T05:55:41.877Z,11
2022-12-11T05:57:53.767Z,10
2022-12-11T06:00:05.658Z,11
2022-12-11T06:02:17.547Z,9
2022-12-11T06:04:29.438Z,11
2022-12-11T06:06:41.329Z,12
2022-12-11T06:08:53.221Z,9
2022-12-11T06:11:05.112Z,13
2022-12-11T06:13:17.002Z,12
2022-12-11T06:15:28.892Z,10
2022-12-11T06:17:40.783Z,11
2022-12-11T06:19:52.674Z,11
2022-12-11T06:22:04.564Z,13
2022-12-11T06:24:16.455Z,12
2022-12-11T06:26:28.345Z,12
2022-12-11T06:28:40.236Z,14
2022-12-11T06:30:52.128Z,17
2022-12-11T06:33:04.019Z,17
2022-12-11T06:35:15.910Z,16
2022-12-11T06:37:27.801Z,14
2022-12-11T06:39:39.691Z,17
2022-12-11T06:41:51.582Z,15
2022-12-11T06:44:03.473Z,11
2022-12-11T06:46:15.364Z,15
2022-12-11T06:48:27.255Z,12
2022-12-11T06:50:39.146Z,11
2022-12-11T06:52:51.037Z,13
2022-12-11T06:55:02.927Z,14
2022-12-11T06:57:14.818Z,15
2022-12-11T06:59:26.708Z,13
2022-12-11T07:01:38.599Z,13
2022-12-11T07:03:50.490Z,14
2022-12-11T07:06:02.380Z,11
2022-12-11T07:08:14.270Z,13
2022-12-11T07:10:26.160Z,13
2022-12-11T07:12:38.051Z,15
2022-12-11T07:14:49.941Z,13
2022-12-11T07:17:01.832Z,12
2022-12-11T07:19:13.722Z,16
2022-12-11T07:21:25.613Z,14
2022-12-11T07:23:37.503Z,17
2022-12-11T07:25:49.393Z,20
2022-12-11T07:28:01.284Z,20
2022-12-11T07:30:13.175Z,16
2022-12-11T07:32:25.065Z,14
2022-12-11T07:34:36.955Z,14
2022-12-11T07:36:48.845Z,16
2022-12-11T07:39:00.737Z,17
2022-12-11T07:41:12.628Z,17
2022-12-11T07:43:24.519Z,18
2022-12-11T07:45:36.409Z,17
2022-12-11T07:47:48.300Z,16
2022-12-11T07:50:00.190Z,13
2022-12-11T07:52:12.080Z,16
2022-12-11T07:54:23.971Z,11
2022-12-11T07:56:35.864Z,14
2022-12-11T07:58:47.752Z,12
2022-12-11T08:00:59.643Z,11
2022-12-11T08:03:11.534Z,12
2022-12-11T08:05:23.423Z,13
2022-12-11T08:07:35.313Z,10
2022-12-11T08:09:47.204Z,10
2022-12-11T08:11:59.095Z,11
2022-12-11T08:14:10.986Z,10
2022-12-11T08:16:22.877Z,10
2022-12-11T08:18:34.767Z,11
2022-12-11T08:20:46.658Z,10
2022-12-11T08:22:58.549Z,15
2022-12-11T08:25:10.439Z,15
2022-12-11T08:27:22.330Z,14
2022-12-11T08:29:34.221Z,18
2022-12-11T08:31:46.112Z,15
2022-12-11T08:33:58.002Z,13
2022-12-11T08:36:09.892Z,11
2022-12-11T08:38:21.782Z,12
2022-12-11T08:40:33.673Z,13
2022-12-11T08:42:45.564Z,16
2022-12-11T08:44:57.455Z,17
2022-12-11T08:47:09.346Z,17
2022-12-11T08:49:21.235Z,20
2022-12-11T08:51:33.126Z,11
2022-12-11T08:53:45.017Z,18
2022-12-11T08:55:56.908Z,20
2022-12-11T08:58:08.798Z,17
2022-12-11T09:00:20.689Z,20
2022-12-11T09:02:32.580Z,19
2022-12-11T09:04:44.471Z,16
2022-12-11T09:06:56.363Z,16
2022-12-11T09:09:08.253Z,19
2022-12-11T09:11:20.144Z,25
2022-12-11T09:13:32.034Z,24
2022-12-11T09:15:43.925Z,20
2022-12-11T09:17:55.815Z,24
2022-12-11T09:20:07.707Z,20
2022-12-11T09:22:19.596Z,26
2022-12-11T09:24:31.486Z,24
2022-12-11T09:26:43.377Z,26
2022-12-11T09:28:55.267Z,21
2022-12-11T09:33:02.663Z,18
2022-12-11T09:35:14.553Z,22
2022-12-11T09:37:26.444Z,20
2022-12-11T09:39:38.335Z,16
2022-12-11T09:41:50.226Z,17
2022-12-11T09:44:02.117Z,14
2022-12-11T09:46:14.008Z,19
2022-12-11T09:48:25.899Z,15
2022-12-11T09:50:37.790Z,13
2022-12-11T09:52:49.681Z,26
2022-12-11T09:55:01.572Z,18
2022-12-11T09:57:13.463Z,16
2022-12-11T09:59:25.354Z,20
2022-12-11T10:01:37.245Z,16
2022-12-11T10:03:49.135Z,16
2022-12-11T10:06:01.027Z,18
2022-12-11T10:08:12.918Z,17
2022-12-11T10:10:24.808Z,18
2022-12-11T10:12:36.698Z,19
2022-12-11T10:14:48.589Z,22
2022-12-11T10:17:00.479Z,20
2022-12-11T10:19:12.369Z,19
2022-12-11T10:21:24.259Z,20
2022-12-11T10:23:36.150Z,24
2022-12-11T10:25:48.040Z,17
2022-12-11T10:27:59.931Z,21
2022-12-11T10:30:11.822Z,16
2022-12-11T10:34:19.219Z,29
2022-12-11T10:36:31.111Z,24
2022-12-11T10:38:43.001Z,23
2022-12-11T10:40:54.891Z,23
2022-12-11T10:43:06.782Z,22
2022-12-11T10:45:18.673Z,25
2022-12-11T10:47:30.564Z,19
2022-12-11T10:49:42.455Z,24
2022-12-11T10:51:54.346Z,20
2022-12-11T10:54:06.237Z,21
2022-12-11T10:58:13.634Z,19
2022-12-11T11:00:25.524Z,19
2022-12-11T11:02:37.415Z,17
2022-12-11T11:04:49.306Z,17
2022-12-11T11:07:01.197Z,14
2022-12-11T11:09:13.087Z,14
2022-12-11T11:11:24.977Z,20
2022-12-11T11:13:36.868Z,18
2022-12-11T11:15:48.759Z,17
2022-12-11T11:18:00.649Z,17
2022-12-11T11:20:12.540Z,32
2022-12-11T11:22:24.432Z,30
2022-12-11T11:24:36.323Z,25
2022-12-11T11:26:48.214Z,32
2022-12-11T11:29:00.105Z,37
2022-12-11T11:31:11.996Z,35
2022-12-11T11:33:23.886Z,35
2022-12-11T11:35:35.776Z,29
2022-12-11T11:37:47.668Z,29
2022-12-11T11:39:59.558Z,29
2022-12-11T11:42:11.449Z,26
2022-12-11T11:44:23.340Z,20
2022-12-11T11:46:35.231Z,23
2022-12-11T11:48:47.121Z,24
2022-12-11T11:50:59.011Z,27
2022-12-11T11:53:10.903Z,27
2022-12-11T11:55:22.793Z,24
2022-12-11T11:57:34.683Z,29
2022-12-11T11:59:46.574Z,28
2022-12-11T12:01:58.465Z,31
2022-12-11T12:04:10.356Z,26
2022-12-11T12:06:22.247Z,21
2022-12-11T12:08:34.138Z,26
2022-12-11T12:10:46.029Z,23
2022-12-11T12:12:57.919Z,27
2022-12-11T12:15:09.810Z,29
2022-12-11T12:17:21.701Z,25
2022-12-11T12:19:33.591Z,24
2022-12-11T12:21:45.482Z,27
2022-12-11T12:23:57.373Z,38
2022-12-11T12:26:09.264Z,37
2022-12-11T12:28:21.154Z,25
2022-12-11T12:30:33.044Z,22
2022-12-11T12:32:44.934Z,24
2022-12-11T12:36:52.331Z,31
2022-12-11T12:39:04.222Z,34
2022-12-11T12:41:16.113Z,41
2022-12-11T12:47:51.783Z,28
2022-12-11T12:50:03.673Z,31
2022-12-11T12:52:15.563Z,21
2022-12-11T12:54:27.453Z,25
2022-12-11T12:56:39.343Z,21
2022-12-11T12:58:51.234Z,19
2022-12-11T13:01:03.126Z,21
2022-12-11T13:03:15.017Z,21
2022-12-11T13:05:26.907Z,17
2022-12-11T13:07:38.798Z,17
2022-12-11T13:09:50.688Z,27
2022-12-11T13:12:02.578Z,25
2022-12-11T13:14:14.468Z,19
2022-12-11T13:16:26.358Z,22
2022-12-11T13:18:38.248Z,28
2022-12-11T13:20:50.139Z,25
2022-12-11T13:23:02.030Z,20
2022-12-11T13:25:13.922Z,27
2022-12-11T13:27:25.811Z,22
2022-12-11T13:29:37.702Z,29
2022-12-11T13:31:49.593Z,23
2022-12-11T13:34:01.483Z,27
2022-12-11T13:36:13.374Z,26
2022-12-11T13:38:25.266Z,31
2022-12-11T13:40:37.156Z,22
2022-12-11T13:42:49.046Z,19
2022-12-11T13:45:00.936Z,15
2022-12-11T13:47:12.826Z,15
2022-12-11T13:49:24.716Z,16
2022-12-11T13:51:36.607Z,23
2022-12-11T13:53:48.498Z,21
2022-12-11T13:56:00.388Z,18
2022-12-11T13:58:12.279Z,17
2022-12-11T14:00:24.169Z,16
2022-12-11T14:02:36.059Z,15
2022-12-11T14:04:47.949Z,20
2022-12-11T14:06:59.839Z,17
2022-12-11T14:09:11.729Z,21
2022-12-11T14:11:23.619Z,23
2022-12-11T14:13:35.509Z,19
2022-12-11T14:15:47.400Z,15
2022-12-11T14:17:59.290Z,22
2022-12-11T14:20:11.180Z,16
2022-12-11T14:22:23.070Z,18
2022-12-11T14:24:34.961Z,21
2022-12-11T14:26:46.851Z,14
2022-12-11T14:28:58.742Z,16
2022-12-11T14:31:10.632Z,16
2022-12-11T14:33:22.522Z,21
2022-12-11T14:35:34.413Z,15
2022-12-11T14:37:46.303Z,17
2022-12-11T14:39:58.194Z,17
2022-12-11T14:42:10.086Z,23
2022-12-11T14:44:21.975Z,24
2022-12-11T14:46:33.865Z,24
2022-12-11T14:48:45.756Z,24
2022-12-11T14:50:57.647Z,22
2022-12-11T14:53:09.537Z,26
2022-12-11T14:55:21.427Z,23
2022-12-11T14:57:33.318Z,20
2022-12-11T14:59:45.208Z,20
2022-12-11T15:01:57.098Z,23
2022-12-11T15:04:08.988Z,22
2022-12-11T15:06:20.878Z,25
2022-12-11T15:08:32.768Z,20
2022-12-11T15:10:44.658Z,24
2022-12-11T15:12:56.548Z,21
2022-12-11T15:15:08.438Z,24
2022-12-11T15:17:20.329Z,26
2022-12-11T15:19:32.219Z,22
2022-12-11T15:21:44.109Z,20
2022-12-11T15:23:56.000Z,20
2022-12-11T15:26:07.891Z,30
2022-12-11T15:28:19.781Z,26
2022-12-11T15:30:31.671Z,13
2022-12-11T15:32:43.561Z,26
2022-12-11T15:34:55.451Z,23
2022-12-11T15:37:07.341Z,18
2022-12-11T15:39:19.231Z,20
2022-12-11T15:41:31.123Z,26
2022-12-11T15:43:43.014Z,18
2022-12-11T15:45:54.904Z,25
2022-12-11T15:48:06.794Z,23
2022-12-11T15:50:18.684Z,18
2022-12-11T15:52:30.574Z,29
2022-12-11T15:54:42.465Z,42
2022-12-11T15:56:54.356Z,37
2022-12-11T15:59:06.246Z,32
2022-12-11T16:01:18.136Z,25
2022-12-11T16:03:30.026Z,36
2022-12-11T16:05:41.917Z,30
2022-12-11T16:07:53.807Z,32
2022-12-11T16:10:05.697Z,28
2022-12-11T16:12:17.587Z,32
2022-12-11T16:14:29.477Z,27
2022-12-11T16:16:41.367Z,31
2022-12-11T16:18:53.257Z,44
2022-12-11T16:21:05.147Z,35
2022-12-11T16:23:17.037Z,35
2022-12-11T16:25:28.927Z,49
2022-12-11T16:27:40.818Z,45
2022-12-11T16:29:52.708Z,37
2022-12-11T16:32:04.598Z,38
2022-12-11T16:34:16.488Z,46
2022-12-11T16:36:28.379Z,38
2022-12-11T16:38:40.269Z,49
2022-12-11T16:42:47.666Z,43
2022-12-11T16:44:59.556Z,43
2022-12-11T16:47:11.446Z,27
2022-12-11T16:49:23.336Z,32
2022-12-11T16:51:35.227Z,27
2022-12-11T16:53:47.117Z,26
2022-12-11T16:55:59.008Z,24
2022-12-11T16:58:10.898Z,18
2022-12-11T17:00:22.789Z,18
2022-12-11T17:02:34.680Z,20
2022-12-11T17:04:46.572Z,20
2022-12-11T17:06:58.461Z,26
2022-12-11T17:09:10.351Z,23
2022-12-11T17:11:22.241Z,22
2022-12-11T17:13:34.133Z,26
2022-12-11T17:15:46.023Z,27
2022-12-11T17:17:57.914Z,20
2022-12-11T17:20:09.804Z,18
2022-12-11T17:22:21.694Z,19
2022-12-11T17:24:33.584Z,23
2022-12-11T17:26:45.475Z,18
2022-12-11T17:28:57.366Z,14
2022-12-11T17:31:09.256Z,16
2022-12-11T17:33:21.146Z,18
2022-12-11T17:35:33.037Z,15
2022-12-11T17:37:44.928Z,25
2022-12-11T17:39:56.818Z,21
2022-12-11T17:44:04.216Z,19
2022-12-11T17:46:16.107Z,21
2022-12-11T17:48:27.997Z,15
2022-12-11T17:50:39.887Z,12
2022-12-11T17:52:51.777Z,14
2022-12-11T17:55:03.667Z,19
2022-12-11T17:57:15.557Z,14
2022-12-11T17:59:27.447Z,17
2022-12-11T18:01:39.337Z,20
2022-12-11T18:03:51.227Z,18
2022-12-11T18:06:03.118Z,19
2022-12-11T18:08:15.010Z,21
2022-12-11T18:10:26.900Z,18
2022-12-11T18:12:38.790Z,16
2022-12-11T18:14:50.680Z,25
2022-12-11T18:18:58.076Z,27
2022-12-11T18:21:09.966Z,26
2022-12-11T18:23:21.856Z,31
2022-12-11T18:25:33.746Z,31
2022-12-11T18:27:45.636Z,22
2022-12-11T18:29:57.527Z,26
2022-12-11T18:32:09.418Z,22
2022-12-11T18:34:21.308Z,21
2022-12-11T18:36:33.199Z,19
2022-12-11T18:38:45.089Z,19
2022-12-11T18:40:56.979Z,15
2022-12-11T18:45:04.377Z,19
2022-12-11T18:47:16.267Z,18
2022-12-11T18:49:28.157Z,16
2022-12-11T18:51:40.047Z,22
2022-12-11T18:53:51.938Z,23
2022-12-11T18:56:03.828Z,19
2022-12-11T18:58:15.719Z,25
2022-12-11T19:00:27.609Z,22
2022-12-11T19:02:39.500Z,22
2022-12-11T19:04:51.390Z,24
2022-12-11T19:07:03.280Z,25
2022-12-11T19:09:15.170Z,25
2022-12-11T19:11:27.060Z,27
2022-12-11T19:13:38.950Z,26
2022-12-11T19:15:50.841Z,24
2022-12-11T19:18:02.732Z,22
2022-12-11T19:20:14.622Z,23
2022-12-11T19:22:26.512Z,19
2022-12-11T19:24:38.402Z,21
2022-12-11T19:26:50.292Z,17
2022-12-11T19:29:02.183Z,16
2022-12-11T19:31:14.073Z,12
2022-12-11T19:33:25.963Z,15
2022-12-11T19:37:49.745Z,20
2022-12-11T19:40:01.635Z,15
2022-12-11T19:42:13.525Z,23
2022-12-11T19:44:25.415Z,32
2022-12-11T19:46:37.305Z,27
2022-12-11T19:48:49.195Z,26
2022-12-11T19:51:01.085Z,28
2022-12-11T19:53:12.975Z,24
2022-12-11T19:55:24.865Z,25
2022-12-11T19:57:36.756Z,23
2022-12-11T19:59:48.646Z,19
2022-12-11T20:02:00.536Z,20
2022-12-11T20:04:12.426Z,23
2022-12-11T20:06:24.316Z,18
2022-12-11T20:08:36.207Z,20
2022-12-11T20:10:48.099Z,18
2022-12-11T20:12:59.988Z,16
2022-12-11T20:15:11.879Z,24
2022-12-11T20:17:23.770Z,21
2022-12-11T20:19:35.660Z,16
2022-12-11T20:21:47.550Z,16
2022-12-11T20:23:59.440Z,29
2022-12-11T20:26:11.330Z,24
2022-12-11T20:28:23.220Z,26
2022-12-11T20:30:35.110Z,24
2022-12-11T20:32:47.000Z,22
2022-12-11T20:34:58.890Z,25
2022-12-11T20:37:10.781Z,23
2022-12-11T20:39:22.672Z,33
2022-12-11T20:41:34.564Z,27
2022-12-11T20:43:46.455Z,26
2022-12-11T20:47:53.851Z,27
2022-12-11T20:50:05.741Z,24
2022-12-11T20:52:17.631Z,30
2022-12-11T20:54:29.521Z,33
2022-12-11T20:56:41.411Z,28
2022-12-11T20:58:53.301Z,27
2022-12-11T21:01:05.191Z,31
2022-12-11T21:03:17.081Z,30
2022-12-11T21:05:28.971Z,32
2022-12-11T21:07:40.861Z,28
2022-12-11T21:09:52.751Z,26
2022-12-11T21:12:04.641Z,28
2022-12-11T21:14:16.531Z,31
2022-12-11T21:16:28.422Z,29
2022-12-11T21:18:40.313Z,24
2022-12-11T21:20:52.203Z,25
2022-12-11T21:23:04.095Z,25
2022-12-11T21:25:15.986Z,24
2022-12-11T21:27:27.876Z,29
2022-12-11T21:29:39.766Z,26
2022-12-11T21:31:51.656Z,22
2022-12-11T21:34:03.546Z,20
2022-12-11T21:36:15.436Z,22
2022-12-11T21:40:39.216Z,16
2022-12-11T21:42:51.106Z,19
2022-12-11T21:45:02.997Z,20
2022-12-11T21:49:10.394Z,19
2022-12-11T21:51:22.284Z,18
2022-12-11T21:53:34.174Z,23
2022-12-11T21:55:46.065Z,18
2022-12-11T21:57:57.956Z,16
2022-12-11T22:00:09.846Z,16
2022-12-11T22:02:21.737Z,18
2022-12-11T22:04:33.628Z,19
2022-12-11T22:06:45.518Z,20
2022-12-11T22:08:57.409Z,19
2022-12-11T22:11:09.299Z,22
2022-12-11T22:13:21.189Z,18
2022-12-11T22:15:33.079Z,19
2022-12-11T22:17:44.969Z,16
2022-12-11T22:19:56.859Z,17
2022-12-11T22:22:08.749Z,17
2022-12-11T22:24:20.639Z,20
2022-12-11T22:26:32.529Z,15
2022-12-11T22:28:44.419Z,15
2022-12-11T22:30:56.310Z,15
2022-12-11T22:33:08.201Z,16
2022-12-11T22:35:20.091Z,17
2022-12-11T22:37:31.982Z,17
2022-12-11T22:39:43.872Z,17
2022-12-11T22:41:55.763Z,18
2022-12-11T22:44:07.655Z,15
2022-12-11T22:46:19.546Z,18
2022-12-11T22:48:31.436Z,19
2022-12-11T22:50:43.326Z,16
2022-12-11T22:52:55.216Z,18
2022-12-11T22:55:07.106Z,17
2022-12-11T22:57:18.996Z,18
2022-12-11T22:59:30.886Z,21
2022-12-11T23:01:42.776Z,17
2022-12-11T23:03:54.666Z,19
2022-12-11T23:06:06.556Z,18
2022-12-11T23:08:18.446Z,19
2022-12-11T23:10:30.336Z,18
2022-12-11T23:12:42.226Z,18
2022-12-11T23:14:54.116Z,15
2022-12-11T23:17:06.006Z,15
2022-12-11T23:19:17.896Z,16
2022-12-11T23:21:29.786Z,15
2022-12-11T23:23:41.678Z,14
2022-12-11T23:25:53.568Z,15
2022-12-11T23:28:05.459Z,14
2022-12-11T23:30:17.349Z,15
2022-12-11T23:32:29.239Z,16
2022-12-11T23:34:41.129Z,14
2022-12-11T23:36:53.020Z,14
2022-12-11T23:39:04.911Z,15
2022-12-11T23:41:16.801Z,13
2022-12-11T23:43:28.691Z,13
2022-12-11T23:45:40.581Z,13
2022-12-11T23:47:52.472Z,10
2022-12-11T23:50:04.363Z,10
2022-12-11T23:52:16.254Z,12
2022-12-11T23:54:28.145Z,14
2022-12-11T23:56:40.036Z,13
2022-12-11T23:58:51.927Z,12
